sensor_id;sensor_type;location;lat;lon;timestamp;pressure;altitude;pressure_sealevel;temperature;humidity
20710;BME280;10516;51.518;9.864;2023-05-14T00:02:12;99132.97;;;13.90;64.25
20710;BME280;10516;51.518;9.864;2023-05-14T00:04:38;99136.19;;;13.87;64.34
20710;BME280;10516;51.518;9.864;2023-05-14T00:07:03;99130.00;;;13.81;64.59
20710;BME280;10516;51.518;9.864;2023-05-14T00:09:28;99136.69;;;13.79;64.71
20710;BME280;10516;51.518;9.864;2023-05-14T00:11:54;99131.63;;;13.82;64.46
20710;BME280;10516;51.518;9.864;2023-05-14T00:14:19;99129.16;;;13.81;64.19
20710;BME280;10516;51.518;9.864;2023-05-14T00:16:45;99121.41;;;13.79;64.45
20710;BME280;10516;51.518;9.864;2023-05-14T00:19:10;99123.81;;;13.81;64.39
20710;BME280;10516;51.518;9.864;2023-05-14T00:21:35;99117.31;;;13.72;64.65
20710;BME280;10516;51.518;9.864;2023-05-14T00:24:00;99121.91;;;13.71;64.71
20710;BME280;10516;51.518;9.864;2023-05-14T00:26:26;99113.03;;;13.71;64.58
20710;BME280;10516;51.518;9.864;2023-05-14T00:28:51;99107.94;;;13.69;64.68
20710;BME280;10516;51.518;9.864;2023-05-14T00:31:16;99111.97;;;13.67;64.52
20710;BME280;10516;51.518;9.864;2023-05-14T00:33:41;99109.25;;;13.62;64.61
20710;BME280;10516;51.518;9.864;2023-05-14T00:36:07;99108.41;;;13.51;65.00
20710;BME280;10516;51.518;9.864;2023-05-14T00:38:32;99108.41;;;13.51;65.14
20710;BME280;10516;51.518;9.864;2023-05-14T00:40:57;99111.84;;;13.46;65.06
20710;BME280;10516;51.518;9.864;2023-05-14T00:43:22;99109.19;;;13.46;65.15
20710;BME280;10516;51.518;9.864;2023-05-14T00:45:49;99101.09;;;13.36;65.45
20710;BME280;10516;51.518;9.864;2023-05-14T00:48:15;99110.69;;;13.32;65.50
20710;BME280;10516;51.518;9.864;2023-05-14T00:50:40;99109.63;;;13.33;65.62
20710;BME280;10516;51.518;9.864;2023-05-14T00:53:06;99110.72;;;13.37;65.64
20710;BME280;10516;51.518;9.864;2023-05-14T00:55:34;99108.31;;;13.36;65.19
20710;BME280;10516;51.518;9.864;2023-05-14T00:58:00;99101.59;;;13.33;65.54
20710;BME280;10516;51.518;9.864;2023-05-14T01:00:26;99104.31;;;13.38;65.37
20710;BME280;10516;51.518;9.864;2023-05-14T01:02:52;99101.59;;;13.33;65.25
20710;BME280;10516;51.518;9.864;2023-05-14T01:05:17;99104.00;;;13.30;65.56
20710;BME280;10516;51.518;9.864;2023-05-14T01:10:12;99097.78;;;13.24;65.94
20710;BME280;10516;51.518;9.864;2023-05-14T01:12:46;99099.41;;;13.25;65.77
20710;BME280;10516;51.518;9.864;2023-05-14T01:17:41;99099.66;;;13.19;66.06
20710;BME280;10516;51.518;9.864;2023-05-14T01:20:07;99106.91;;;13.23;65.83
20710;BME280;10516;51.518;9.864;2023-05-14T01:22:33;99102.88;;;13.21;65.93
20710;BME280;10516;51.518;9.864;2023-05-14T01:24:58;99101.78;;;13.17;66.14
20710;BME280;10516;51.518;9.864;2023-05-14T01:29:56;99095.59;;;13.16;66.09
20710;BME280;10516;51.518;9.864;2023-05-14T01:32:23;99095.06;;;13.19;66.24
20710;BME280;10516;51.518;9.864;2023-05-14T01:34:49;99099.91;;;13.22;65.72
20710;BME280;10516;51.518;9.864;2023-05-14T01:37:14;99099.91;;;13.22;66.19
20710;BME280;10516;51.518;9.864;2023-05-14T01:39:40;99093.53;;;13.28;65.84
20710;BME280;10516;51.518;9.864;2023-05-14T01:42:06;99095.69;;;13.31;65.71
20710;BME280;10516;51.518;9.864;2023-05-14T01:44:31;99101.00;;;13.21;66.29
20710;BME280;10516;51.518;9.864;2023-05-14T01:46:57;99095.66;;;13.26;65.94
20710;BME280;10516;51.518;9.864;2023-05-14T01:49:22;99089.25;;;13.27;66.05
20710;BME280;10516;51.518;9.864;2023-05-14T01:51:48;99085.97;;;13.20;66.41
20710;BME280;10516;51.518;9.864;2023-05-14T01:54:13;99092.66;;;13.18;66.59
20710;BME280;10516;51.518;9.864;2023-05-14T01:56:38;99088.66;;;13.20;66.49
20710;BME280;10516;51.518;9.864;2023-05-14T01:59:03;99087.03;;;13.19;66.42
20710;BME280;10516;51.518;9.864;2023-05-14T02:01:29;99080.88;;;13.19;66.34
20710;BME280;10516;51.518;9.864;2023-05-14T02:03:54;99078.44;;;13.12;66.85
20710;BME280;10516;51.518;9.864;2023-05-14T02:06:19;99085.38;;;13.13;66.64
20710;BME280;10516;51.518;9.864;2023-05-14T02:08:44;99083.47;;;13.09;66.77
20710;BME280;10516;51.518;9.864;2023-05-14T02:11:10;99086.44;;;13.07;66.86
20710;BME280;10516;51.518;9.864;2023-05-14T02:13:35;99087.47;;;13.06;67.02
20710;BME280;10516;51.518;9.864;2023-05-14T02:16:00;99085.06;;;13.05;66.94
20710;BME280;10516;51.518;9.864;2023-05-14T02:18:25;99084.75;;;13.01;67.06
20710;BME280;10516;51.518;9.864;2023-05-14T02:20:51;99078.47;;;12.86;67.37
20710;BME280;10516;51.518;9.864;2023-05-14T02:23:16;99076.72;;;13.01;67.39
20710;BME280;10516;51.518;9.864;2023-05-14T02:25:42;99076.16;;;12.99;67.09
20710;BME280;10516;51.518;9.864;2023-05-14T02:28:07;99077.75;;;12.95;67.16
20710;BME280;10516;51.518;9.864;2023-05-14T02:30:32;99076.88;;;12.53;67.79
20710;BME280;10516;51.518;9.864;2023-05-14T02:32:58;99074.72;;;12.82;67.26
20710;BME280;10516;51.518;9.864;2023-05-14T02:35:23;99072.41;;;13.00;66.89
20710;BME280;10516;51.518;9.864;2023-05-14T02:37:48;99078.13;;;13.09;66.26
20710;BME280;10516;51.518;9.864;2023-05-14T02:40:13;99073.72;;;12.93;66.94
20710;BME280;10516;51.518;9.864;2023-05-14T02:42:39;99074.22;;;12.90;66.82
20710;BME280;10516;51.518;9.864;2023-05-14T02:45:05;99071.50;;;12.85;67.24
20710;BME280;10516;51.518;9.864;2023-05-14T02:47:30;99066.69;;;12.82;67.13
20710;BME280;10516;51.518;9.864;2023-05-14T02:49:55;99058.53;;;12.71;67.45
20710;BME280;10516;51.518;9.864;2023-05-14T02:52:21;99058.03;;;12.74;67.42
20710;BME280;10516;51.518;9.864;2023-05-14T02:54:46;99056.19;;;12.80;67.35
20710;BME280;10516;51.518;9.864;2023-05-14T02:57:11;99063.13;;;12.71;67.05
20710;BME280;10516;51.518;9.864;2023-05-14T02:59:37;99059.41;;;12.77;67.26
20710;BME280;10516;51.518;9.864;2023-05-14T03:02:02;99067.91;;;12.69;66.95
20710;BME280;10516;51.518;9.864;2023-05-14T03:04:28;99067.81;;;12.59;67.31
20710;BME280;10516;51.518;9.864;2023-05-14T03:06:53;99064.88;;;12.60;67.48
20710;BME280;10516;51.518;9.864;2023-05-14T03:09:18;99061.09;;;12.51;67.69
20710;BME280;10516;51.518;9.864;2023-05-14T03:11:44;99055.00;;;12.61;67.36
20710;BME280;10516;51.518;9.864;2023-05-14T03:14:09;99045.91;;;12.62;67.10
20710;BME280;10516;51.518;9.864;2023-05-14T03:16:34;99041.81;;;12.54;67.43
20710;BME280;10516;51.518;9.864;2023-05-14T03:18:59;99045.59;;;12.58;67.15
20710;BME280;10516;51.518;9.864;2023-05-14T03:21:25;99056.84;;;12.60;67.26
20710;BME280;10516;51.518;9.864;2023-05-14T03:23:51;99051.97;;;12.52;67.31
20710;BME280;10516;51.518;9.864;2023-05-14T03:26:16;99055.53;;;12.58;67.08
20710;BME280;10516;51.518;9.864;2023-05-14T03:28:41;99047.19;;;12.54;67.15
20710;BME280;10516;51.518;9.864;2023-05-14T03:31:06;99049.72;;;10.99;72.27
20710;BME280;10516;51.518;9.864;2023-05-14T03:33:32;99053.16;;;11.16;72.02
20710;BME280;10516;51.518;9.864;2023-05-14T03:35:57;99064.47;;;11.88;69.98
20710;BME280;10516;51.518;9.864;2023-05-14T03:38:23;99062.47;;;12.27;68.27
20710;BME280;10516;51.518;9.864;2023-05-14T03:40:48;99066.34;;;12.41;68.24
20710;BME280;10516;51.518;9.864;2023-05-14T03:43:13;99063.19;;;12.49;67.96
20710;BME280;10516;51.518;9.864;2023-05-14T03:45:38;99059.19;;;12.47;67.84
20710;BME280;10516;51.518;9.864;2023-05-14T03:48:04;99056.56;;;12.57;67.79
20710;BME280;10516;51.518;9.864;2023-05-14T03:50:29;99059.28;;;12.62;67.46
20710;BME280;10516;51.518;9.864;2023-05-14T03:52:55;99056.06;;;12.60;67.69
20710;BME280;10516;51.518;9.864;2023-05-14T03:55:20;99063.03;;;12.61;68.00
20710;BME280;10516;51.518;9.864;2023-05-14T03:57:46;99060.63;;;12.59;67.77
20710;BME280;10516;51.518;9.864;2023-05-14T04:00:11;99049.59;;;12.56;68.07
20710;BME280;10516;51.518;9.864;2023-05-14T04:02:37;99061.53;;;12.12;69.63
20710;BME280;10516;51.518;9.864;2023-05-14T04:05:02;99060.91;;;12.04;70.08
20710;BME280;10516;51.518;9.864;2023-05-14T04:07:28;99056.53;;;12.52;68.55
20710;BME280;10516;51.518;9.864;2023-05-14T04:09:53;99055.00;;;12.61;68.09
20710;BME280;10516;51.518;9.864;2023-05-14T04:12:19;99052.97;;;12.73;67.97
20710;BME280;10516;51.518;9.864;2023-05-14T04:14:44;99053.16;;;12.66;68.32
20710;BME280;10516;51.518;9.864;2023-05-14T04:17:09;99055.38;;;12.74;67.92
20710;BME280;10516;51.518;9.864;2023-05-14T04:19:35;99052.97;;;12.78;67.85
20710;BME280;10516;51.518;9.864;2023-05-14T04:22:00;99050.28;;;12.73;67.92
20710;BME280;10516;51.518;9.864;2023-05-14T04:24:25;99045.75;;;12.78;68.00
20710;BME280;10516;51.518;9.864;2023-05-14T04:26:50;99040.66;;;12.82;68.04
20710;BME280;10516;51.518;9.864;2023-05-14T04:29:15;99045.03;;;12.88;67.68
20710;BME280;10516;51.518;9.864;2023-05-14T04:31:41;99042.03;;;12.85;67.91
20710;BME280;10516;51.518;9.864;2023-05-14T04:34:07;99046.56;;;12.79;68.24
20710;BME280;10516;51.518;9.864;2023-05-14T04:36:32;99040.09;;;12.75;68.60
20710;BME280;10516;51.518;9.864;2023-05-14T04:38:57;99048.09;;;12.07;72.33
20710;BME280;10516;51.518;9.864;2023-05-14T04:41:22;99048.97;;;11.42;75.50
20710;BME280;10516;51.518;9.864;2023-05-14T04:43:48;99048.50;;;11.07;77.43
20710;BME280;10516;51.518;9.864;2023-05-14T04:46:13;99053.13;;;10.95;78.48
20710;BME280;10516;51.518;9.864;2023-05-14T04:48:39;99049.38;;;10.74;79.18
20710;BME280;10516;51.518;9.864;2023-05-14T04:51:04;99053.47;;;10.82;79.46
20710;BME280;10516;51.518;9.864;2023-05-14T04:53:30;99059.59;;;10.99;77.99
20710;BME280;10516;51.518;9.864;2023-05-14T04:55:55;99071.19;;;11.48;75.49
20710;BME280;10516;51.518;9.864;2023-05-14T04:58:20;99071.44;;;11.24;76.74
20710;BME280;10516;51.518;9.864;2023-05-14T05:00:47;99066.41;;;10.73;79.36
20710;BME280;10516;51.518;9.864;2023-05-14T05:03:12;99062.75;;;10.79;79.14
20710;BME280;10516;51.518;9.864;2023-05-14T05:05:38;99064.09;;;11.15;78.13
20710;BME280;10516;51.518;9.864;2023-05-14T05:08:03;99061.69;;;11.57;75.74
20710;BME280;10516;51.518;9.864;2023-05-14T05:10:28;99066.41;;;12.20;72.60
20710;BME280;10516;51.518;9.864;2023-05-14T05:12:53;99070.13;;;12.77;70.69
20710;BME280;10516;51.518;9.864;2023-05-14T05:15:19;99067.81;;;12.96;69.73
20710;BME280;10516;51.518;9.864;2023-05-14T05:17:44;99068.59;;;12.91;69.57
20710;BME280;10516;51.518;9.864;2023-05-14T05:20:09;99073.72;;;12.93;69.48
20710;BME280;10516;51.518;9.864;2023-05-14T05:22:35;99051.75;;;12.91;69.42
20710;BME280;10516;51.518;9.864;2023-05-14T05:25:00;99062.31;;;13.07;69.20
20710;BME280;10516;51.518;9.864;2023-05-14T05:27:29;99060.72;;;13.11;69.03
20710;BME280;10516;51.518;9.864;2023-05-14T05:29:54;99058.31;;;13.10;69.03
20710;BME280;10516;51.518;9.864;2023-05-14T05:32:19;99061.28;;;13.13;68.97
20710;BME280;10516;51.518;9.864;2023-05-14T05:34:45;99059.28;;;12.99;69.88
20710;BME280;10516;51.518;9.864;2023-05-14T05:37:10;99057.09;;;12.96;70.44
20710;BME280;10516;51.518;9.864;2023-05-14T05:39:38;99061.03;;;13.15;68.90
20710;BME280;10516;51.518;9.864;2023-05-14T05:42:04;99053.81;;;13.20;68.88
20710;BME280;10516;51.518;9.864;2023-05-14T05:44:29;99064.66;;;12.62;71.66
20710;BME280;10516;51.518;9.864;2023-05-14T05:46:54;99060.09;;;12.99;70.02
20710;BME280;10516;51.518;9.864;2023-05-14T05:49:22;99065.97;;;12.01;76.06
20710;BME280;10516;51.518;9.864;2023-05-14T05:51:50;99067.91;;;11.84;76.32
20710;BME280;10516;51.518;9.864;2023-05-14T05:54:16;99066.53;;;12.03;76.01
20710;BME280;10516;51.518;9.864;2023-05-14T05:56:41;99056.88;;;12.29;73.99
20710;BME280;10516;51.518;9.864;2023-05-14T05:59:06;99057.56;;;12.19;75.43
20710;BME280;10516;51.518;9.864;2023-05-14T06:01:32;99064.56;;;11.50;78.20
20710;BME280;10516;51.518;9.864;2023-05-14T06:03:57;99058.81;;;11.20;78.47
20710;BME280;10516;51.518;9.864;2023-05-14T06:06:22;99066.97;;;11.52;78.52
20710;BME280;10516;51.518;9.864;2023-05-14T06:08:47;99058.84;;;11.63;78.48
20710;BME280;10516;51.518;9.864;2023-05-14T06:11:13;99064.56;;;11.72;77.34
20710;BME280;10516;51.518;9.864;2023-05-14T06:13:39;99063.97;;;12.45;73.88
20710;BME280;10516;51.518;9.864;2023-05-14T06:16:04;99057.22;;;13.06;71.25
20710;BME280;10516;51.518;9.864;2023-05-14T06:18:30;99061.34;;;13.28;70.37
20710;BME280;10516;51.518;9.864;2023-05-14T06:20:55;99059.50;;;12.92;72.85
20710;BME280;10516;51.518;9.864;2023-05-14T06:23:21;99069.34;;;12.45;75.21
20710;BME280;10516;51.518;9.864;2023-05-14T06:25:48;99065.84;;;13.18;71.47
20710;BME280;10516;51.518;9.864;2023-05-14T06:28:13;99062.78;;;12.31;74.55
20710;BME280;10516;51.518;9.864;2023-05-14T06:30:39;99057.34;;;12.89;72.86
20710;BME280;10516;51.518;9.864;2023-05-14T06:33:04;99061.38;;;13.33;70.85
20710;BME280;10516;51.518;9.864;2023-05-14T06:35:29;99056.16;;;13.64;69.52
20710;BME280;10516;51.518;9.864;2023-05-14T06:37:54;99051.69;;;13.94;67.99
20710;BME280;10516;51.518;9.864;2023-05-14T06:40:20;99047.38;;;13.98;67.64
20710;BME280;10516;51.518;9.864;2023-05-14T06:42:45;99053.72;;;13.57;70.27
20710;BME280;10516;51.518;9.864;2023-05-14T06:45:10;99054.44;;;13.37;72.32
20710;BME280;10516;51.518;9.864;2023-05-14T06:47:35;99057.56;;;12.82;73.50
20710;BME280;10516;51.518;9.864;2023-05-14T06:50:00;99045.34;;;13.43;70.90
20710;BME280;10516;51.518;9.864;2023-05-14T06:52:26;99050.03;;;13.83;69.48
20710;BME280;10516;51.518;9.864;2023-05-14T06:54:51;99056.88;;;13.02;73.02
20710;BME280;10516;51.518;9.864;2023-05-14T06:57:16;99055.69;;;13.87;69.31
20710;BME280;10516;51.518;9.864;2023-05-14T06:59:41;99055.94;;;13.80;69.65
20710;BME280;10516;51.518;9.864;2023-05-14T07:02:07;99060.34;;;12.61;74.62
20710;BME280;10516;51.518;9.864;2023-05-14T07:04:32;99056.19;;;12.75;75.13
20710;BME280;10516;51.518;9.864;2023-05-14T07:06:57;99052.47;;;12.44;74.91
20710;BME280;10516;51.518;9.864;2023-05-14T07:09:22;99046.78;;;12.41;75.94
20710;BME280;10516;51.518;9.864;2023-05-14T07:11:48;99036.72;;;13.31;72.04
20710;BME280;10516;51.518;9.864;2023-05-14T07:14:13;99036.31;;;13.08;73.20
20710;BME280;10516;51.518;9.864;2023-05-14T07:16:38;99040.91;;;13.17;72.89
20710;BME280;10516;51.518;9.864;2023-05-14T07:19:04;99038.81;;;13.24;72.40
20710;BME280;10516;51.518;9.864;2023-05-14T07:21:29;99033.81;;;13.48;72.77
20710;BME280;10516;51.518;9.864;2023-05-14T07:23:55;99032.03;;;13.79;70.61
20710;BME280;10516;51.518;9.864;2023-05-14T07:26:21;99037.19;;;14.00;70.09
20710;BME280;10516;51.518;9.864;2023-05-14T07:28:48;99033.88;;;13.58;72.42
20710;BME280;10516;51.518;9.864;2023-05-14T07:31:13;99031.31;;;14.18;69.46
20710;BME280;10516;51.518;9.864;2023-05-14T07:33:38;99028.13;;;14.47;68.57
20710;BME280;10516;51.518;9.864;2023-05-14T07:36:04;99025.72;;;14.60;68.10
20710;BME280;10516;51.518;9.864;2023-05-14T07:38:29;99025.72;;;14.80;67.25
20710;BME280;10516;51.518;9.864;2023-05-14T07:40:55;99018.16;;;14.87;67.43
20710;BME280;10516;51.518;9.864;2023-05-14T07:43:20;99028.13;;;14.32;71.58
20710;BME280;10516;51.518;9.864;2023-05-14T07:45:45;99016.88;;;14.45;70.78
20710;BME280;10516;51.518;9.864;2023-05-14T07:48:11;99008.25;;;14.58;70.26
20710;BME280;10516;51.518;9.864;2023-05-14T07:50:36;99018.22;;;14.52;70.99
20710;BME280;10516;51.518;9.864;2023-05-14T07:53:02;99015.78;;;14.41;72.14
20710;BME280;10516;51.518;9.864;2023-05-14T07:55:27;99017.66;;;14.70;71.26
20710;BME280;10516;51.518;9.864;2023-05-14T07:57:52;99016.06;;;14.34;70.61
20710;BME280;10516;51.518;9.864;2023-05-14T08:00:18;99004.25;;;14.45;71.54
20710;BME280;10516;51.518;9.864;2023-05-14T08:02:43;99001.81;;;14.69;71.21
20710;BME280;10516;51.518;9.864;2023-05-14T08:05:08;99011.75;;;14.28;71.35
20710;BME280;10516;51.518;9.864;2023-05-14T08:07:34;99015.25;;;14.34;72.07
20710;BME280;10516;51.518;9.864;2023-05-14T08:09:59;99007.69;;;14.86;70.37
20710;BME280;10516;51.518;9.864;2023-05-14T08:12:25;99009.31;;;14.62;71.19
20710;BME280;10516;51.518;9.864;2023-05-14T08:14:50;99003.94;;;14.77;71.38
20710;BME280;10516;51.518;9.864;2023-05-14T08:17:16;99003.16;;;14.56;71.30
20710;BME280;10516;51.518;9.864;2023-05-14T08:19:41;98999.84;;;14.99;69.92
20710;BME280;10516;51.518;9.864;2023-05-14T08:22:07;99001.28;;;15.51;68.19
20710;BME280;10516;51.518;9.864;2023-05-14T08:24:32;99012.03;;;15.56;69.65
20710;BME280;10516;51.518;9.864;2023-05-14T08:26:57;99006.16;;;15.49;68.69
20710;BME280;10516;51.518;9.864;2023-05-14T08:29:23;99005.84;;;15.60;67.09
20710;BME280;10516;51.518;9.864;2023-05-14T08:31:48;99004.56;;;15.48;69.63
20710;BME280;10516;51.518;9.864;2023-05-14T08:34:14;99003.56;;;15.24;69.08
20710;BME280;10516;51.518;9.864;2023-05-14T08:36:39;99005.34;;;15.97;66.53
20710;BME280;10516;51.518;9.864;2023-05-14T08:39:04;99000.88;;;16.21;66.23
20710;BME280;10516;51.518;9.864;2023-05-14T08:41:31;98993.97;;;16.44;65.10
20710;BME280;10516;51.518;9.864;2023-05-14T08:44:07;98990.34;;;16.59;64.92
20710;BME280;10516;51.518;9.864;2023-05-14T08:46:36;98984.09;;;16.63;64.88
20710;BME280;10516;51.518;9.864;2023-05-14T08:49:16;98980.59;;;16.63;64.18
20710;BME280;10516;51.518;9.864;2023-05-14T08:51:43;98988.16;;;16.61;64.66
20710;BME280;10516;51.518;9.864;2023-05-14T08:54:12;98976.88;;;16.25;65.87
20710;BME280;10516;51.518;9.864;2023-05-14T08:56:40;98977.28;;;16.03;65.83
20710;BME280;10516;51.518;9.864;2023-05-14T08:59:07;98975.56;;;15.84;66.06
20710;BME280;10516;51.518;9.864;2023-05-14T09:01:32;98973.72;;;16.18;65.97
20710;BME280;10516;51.518;9.864;2023-05-14T09:03:58;98968.00;;;16.24;65.90
20710;BME280;10516;51.518;9.864;2023-05-14T09:06:25;98971.25;;;16.21;65.81
20710;BME280;10516;51.518;9.864;2023-05-14T09:08:51;98969.59;;;16.25;65.73
20710;BME280;10516;51.518;9.864;2023-05-14T09:11:16;98962.44;;;15.72;66.19
20710;BME280;10516;51.518;9.864;2023-05-14T09:13:42;98961.25;;;15.39;66.41
20710;BME280;10516;51.518;9.864;2023-05-14T09:16:07;98958.50;;;16.32;65.62
20710;BME280;10516;51.518;9.864;2023-05-14T09:18:34;98962.59;;;16.58;64.35
20710;BME280;10516;51.518;9.864;2023-05-14T09:20:59;98956.47;;;16.76;63.93
20710;BME280;10516;51.518;9.864;2023-05-14T09:23:28;98951.00;;;16.29;63.09
20710;BME280;10516;51.518;9.864;2023-05-14T09:25:55;98954.06;;;16.12;63.96
20710;BME280;10516;51.518;9.864;2023-05-14T09:28:20;98942.72;;;16.78;63.79
20710;BME280;10516;51.518;9.864;2023-05-14T09:30:50;98943.63;;;17.15;62.92
20710;BME280;10516;51.518;9.864;2023-05-14T09:33:24;98933.59;;;17.21;63.27
20710;BME280;10516;51.518;9.864;2023-05-14T09:35:49;98933.88;;;16.96;65.12
20710;BME280;10516;51.518;9.864;2023-05-14T09:38:40;98941.47;;;16.94;63.95
20710;BME280;10516;51.518;9.864;2023-05-14T09:41:05;98933.25;;;17.04;62.77
20710;BME280;10516;51.518;9.864;2023-05-14T09:43:30;98929.84;;;17.17;60.06
20710;BME280;10516;51.518;9.864;2023-05-14T09:45:55;98934.88;;;17.23;61.77
20710;BME280;10516;51.518;9.864;2023-05-14T09:48:21;98924.25;;;17.32;60.17
20710;BME280;10516;51.518;9.864;2023-05-14T09:50:46;98921.75;;;17.59;60.19
20710;BME280;10516;51.518;9.864;2023-05-14T09:53:12;98917.53;;;18.23;60.39
20710;BME280;10516;51.518;9.864;2023-05-14T09:55:37;98918.38;;;18.37;58.57
20710;BME280;10516;51.518;9.864;2023-05-14T09:58:03;98920.69;;;18.11;55.00
20710;BME280;10516;51.518;9.864;2023-05-14T10:00:30;98919.59;;;18.12;55.57
20710;BME280;10516;51.518;9.864;2023-05-14T10:02:55;98902.91;;;17.91;54.39
20710;BME280;10516;51.518;9.864;2023-05-14T10:05:21;98902.22;;;18.91;58.29
20710;BME280;10516;51.518;9.864;2023-05-14T10:07:47;98907.72;;;18.73;58.17
20710;BME280;10516;51.518;9.864;2023-05-14T10:10:20;98904.91;;;18.78;56.61
20710;BME280;10516;51.518;9.864;2023-05-14T10:12:52;98910.16;;;19.51;56.90
20710;BME280;10516;51.518;9.864;2023-05-14T10:15:36;98905.16;;;19.44;54.59
20710;BME280;10516;51.518;9.864;2023-05-14T10:18:06;98907.00;;;19.21;53.15
20710;BME280;10516;51.518;9.864;2023-05-14T10:20:33;98898.09;;;19.34;53.71
20710;BME280;10516;51.518;9.864;2023-05-14T10:22:58;98899.56;;;19.40;56.25
20710;BME280;10516;51.518;9.864;2023-05-14T10:25:24;98902.97;;;19.46;55.23
20710;BME280;10516;51.518;9.864;2023-05-14T10:27:50;98894.09;;;19.68;55.32
20710;BME280;10516;51.518;9.864;2023-05-14T10:30:15;98889.56;;;19.41;51.49
20710;BME280;10516;51.518;9.864;2023-05-14T10:32:44;98905.28;;;19.53;55.03
20710;BME280;10516;51.518;9.864;2023-05-14T10:35:16;98893.66;;;19.11;51.96
20710;BME280;10516;51.518;9.864;2023-05-14T10:37:42;98886.75;;;19.46;52.95
20710;BME280;10516;51.518;9.864;2023-05-14T10:40:08;98880.66;;;20.29;55.02
20710;BME280;10516;51.518;9.864;2023-05-14T10:42:35;98877.97;;;20.07;52.34
20710;BME280;10516;51.518;9.864;2023-05-14T10:45:05;98877.19;;;19.49;53.93
20710;BME280;10516;51.518;9.864;2023-05-14T10:47:32;98864.72;;;19.83;53.75
20710;BME280;10516;51.518;9.864;2023-05-14T10:49:58;98864.69;;;20.58;54.48
20710;BME280;10516;51.518;9.864;2023-05-14T10:52:24;98867.22;;;20.46;53.06
20710;BME280;10516;51.518;9.864;2023-05-14T10:54:53;98858.22;;;20.76;53.01
20710;BME280;10516;51.518;9.864;2023-05-14T10:57:20;98869.34;;;19.61;51.45
20710;BME280;10516;51.518;9.864;2023-05-14T10:59:46;98862.38;;;19.32;51.83
20710;BME280;10516;51.518;9.864;2023-05-14T11:02:44;98862.53;;;20.38;53.90
20710;BME280;10516;51.518;9.864;2023-05-14T11:09:56;98840.16;;;20.02;49.47
20710;BME280;10516;51.518;9.864;2023-05-14T11:12:23;98851.00;;;19.80;48.68
20710;BME280;10516;51.518;9.864;2023-05-14T11:14:50;98840.56;;;20.48;49.66
20710;BME280;10516;51.518;9.864;2023-05-14T11:17:15;98832.47;;;20.57;49.09
20710;BME280;10516;51.518;9.864;2023-05-14T11:19:41;98839.81;;;20.03;49.96
20710;BME280;10516;51.518;9.864;2023-05-14T11:22:07;98839.56;;;20.75;50.83
20710;BME280;10516;51.518;9.864;2023-05-14T11:24:32;98837.78;;;21.44;49.73
20710;BME280;10516;51.518;9.864;2023-05-14T11:26:57;98838.84;;;21.09;49.43
20710;BME280;10516;51.518;9.864;2023-05-14T11:29:23;98838.31;;;19.89;51.70
20710;BME280;10516;51.518;9.864;2023-05-14T11:31:48;98831.75;;;20.12;54.44
20710;BME280;10516;51.518;9.864;2023-05-14T11:34:14;98831.75;;;20.12;53.99
20710;BME280;10516;51.518;9.864;2023-05-14T11:36:39;98827.59;;;20.84;50.93
20710;BME280;10516;51.518;9.864;2023-05-14T11:39:06;98824.88;;;20.84;51.13
20710;BME280;10516;51.518;9.864;2023-05-14T11:41:31;98827.31;;;20.47;52.60
20710;BME280;10516;51.518;9.864;2023-05-14T11:43:57;98823.44;;;20.31;51.43
20710;BME280;10516;51.518;9.864;2023-05-14T11:46:22;98825.44;;;20.56;52.85
20710;BME280;10516;51.518;9.864;2023-05-14T11:48:48;98826.69;;;20.19;51.98
20710;BME280;10516;51.518;9.864;2023-05-14T11:51:13;98825.78;;;20.63;52.05
20710;BME280;10516;51.518;9.864;2023-05-14T11:53:38;98815.13;;;20.36;53.20
20710;BME280;10516;51.518;9.864;2023-05-14T11:56:04;98809.66;;;21.14;50.75
20710;BME280;10516;51.518;9.864;2023-05-14T11:58:32;98812.47;;;19.83;51.83
20710;BME280;10516;51.518;9.864;2023-05-14T12:00:57;98803.81;;;19.72;54.70
20710;BME280;10516;51.518;9.864;2023-05-14T12:03:23;98805.31;;;19.87;54.61
20710;BME280;10516;51.518;9.864;2023-05-14T12:06:00;98800.84;;;21.34;51.74
20710;BME280;10516;51.518;9.864;2023-05-14T12:08:26;98806.59;;;21.67;49.97
20710;BME280;10516;51.518;9.864;2023-05-14T12:10:52;98801.91;;;20.99;52.89
20710;BME280;10516;51.518;9.864;2023-05-14T12:13:17;98804.75;;;20.29;53.48
20710;BME280;10516;51.518;9.864;2023-05-14T12:15:46;98794.97;;;20.19;52.70
20710;BME280;10516;51.518;9.864;2023-05-14T12:18:11;98802.13;;;19.63;54.25
20710;BME280;10516;51.518;9.864;2023-05-14T12:20:37;98795.97;;;19.49;54.25
20710;BME280;10516;51.518;9.864;2023-05-14T12:23:02;98790.00;;;20.44;55.03
20710;BME280;10516;51.518;9.864;2023-05-14T12:25:27;98792.75;;;20.61;54.15
20710;BME280;10516;51.518;9.864;2023-05-14T12:27:53;98783.28;;;21.06;54.22
20710;BME280;10516;51.518;9.864;2023-05-14T12:30:18;98786.81;;;21.67;51.72
20710;BME280;10516;51.518;9.864;2023-05-14T12:32:44;98796.72;;;21.20;51.44
20710;BME280;10516;51.518;9.864;2023-05-14T12:35:09;98792.34;;;21.96;51.66
20710;BME280;10516;51.518;9.864;2023-05-14T12:37:35;98785.22;;;21.23;51.06
20710;BME280;10516;51.518;9.864;2023-05-14T12:40:02;98787.47;;;21.29;51.38
20710;BME280;10516;51.518;9.864;2023-05-14T12:42:28;98787.13;;;21.48;51.47
20710;BME280;10516;51.518;9.864;2023-05-14T12:44:53;98780.28;;;20.51;51.27
20710;BME280;10516;51.518;9.864;2023-05-14T12:47:18;98786.59;;;20.38;53.86
20710;BME280;10516;51.518;9.864;2023-05-14T12:49:44;98786.13;;;20.05;54.03
20710;BME280;10516;51.518;9.864;2023-05-14T12:52:09;98789.53;;;20.50;54.31
20710;BME280;10516;51.518;9.864;2023-05-14T12:54:34;98785.97;;;19.80;54.85
20710;BME280;10516;51.518;9.864;2023-05-14T12:56:59;98778.34;;;20.43;55.03
20710;BME280;10516;51.518;9.864;2023-05-14T12:59:25;98779.25;;;19.99;53.51
20710;BME280;10516;51.518;9.864;2023-05-14T13:01:50;98776.06;;;19.75;54.98
20710;BME280;10516;51.518;9.864;2023-05-14T13:04:15;98775.53;;;19.07;55.41
20710;BME280;10516;51.518;9.864;2023-05-14T13:06:40;98780.19;;;19.28;55.76